Time;durP1;ratioP1;P1;durP2;ratioP2;P2;SDS_P1;SDS_P2;PMS_P1;PMS_P2;Temp;Humidity;BMP_temperature;BMP_pressure;BME280_temperature;BME280_humidity;BME280_pressure;Samples;Min_cycle;Max_cycle;Signal;HPM_P1;HPM_P2
2022/03/25 00:01:36;;;;;;;32.58;18.00;;;5.90;93.10;;;;;;5044109;28;20105;-74
2022/03/25 00:04:01;;;;;;;32.85;18.80;;;5.80;93.90;;;;;;5031823;28;20383;-73
2022/03/25 00:06:27;;;;;;;29.10;17.83;;;5.80;94.40;;;;;;5031094;28;20032;-74
2022/03/25 00:08:53;;;;;;;33.80;18.55;;;5.80;94.70;;;;;;5039959;28;20508;-74
2022/03/25 00:11:18;;;;;;;30.60;17.92;;;5.80;94.90;;;;;;5051017;28;20554;-74
2022/03/25 00:13:44;;;;;;;27.90;17.48;;;5.70;95.10;;;;;;5051661;28;20025;-74
2022/03/25 00:16:10;;;;;;;31.15;17.55;;;5.60;95.50;;;;;;5051221;28;20466;-70
2022/03/25 00:18:36;;;;;;;30.40;17.48;;;5.60;95.70;;;;;;5045263;28;20450;-72
2022/03/25 00:21:01;;;;;;;36.10;18.38;;;5.50;96.50;;;;;;5032139;28;20029;-74
2022/03/25 00:23:27;;;;;;;36.13;18.25;;;5.50;97.30;;;;;;5031127;28;20426;-74
2022/03/25 00:25:53;;;;;;;32.67;18.67;;;5.40;97.70;;;;;;5031524;28;20022;-74
2022/03/25 00:28:20;;;;;;;31.48;18.15;;;5.40;97.90;;;;;;5033461;28;20037;-73
2022/03/25 00:30:46;;;;;;;30.08;18.30;;;5.40;98.10;;;;;;5051244;28;20415;-73
2022/03/25 00:33:13;;;;;;;31.67;17.88;;;5.40;98.20;;;;;;5051184;28;20146;-70
2022/03/25 00:35:40;;;;;;;30.70;17.20;;;5.40;98.60;;;;;;5051471;28;20031;-74
2022/03/25 00:38:06;;;;;;;32.60;18.65;;;5.40;98.40;;;;;;5050953;28;20029;-74
2022/03/25 00:40:31;;;;;;;29.23;17.80;;;5.30;98.30;;;;;;5052576;28;20188;-73
2022/03/25 00:42:58;;;;;;;31.67;17.98;;;5.30;98.40;;;;;;5055365;28;20079;-74
2022/03/25 00:45:23;;;;;;;28.77;17.33;;;5.20;98.40;;;;;;5039281;28;20386;-75
2022/03/25 00:47:49;;;;;;;31.10;17.55;;;5.10;98.20;;;;;;5036221;28;20038;-75
2022/03/25 00:50:16;;;;;;;32.83;17.50;;;5.10;98.30;;;;;;5054155;28;20079;-74
2022/03/25 00:52:42;;;;;;;30.50;17.75;;;5.00;98.60;;;;;;5054636;28;20394;-74
2022/03/25 00:55:08;;;;;;;34.88;18.45;;;5.00;99.40;;;;;;5055586;28;20024;-74
2022/03/25 00:57:34;;;;;;;29.80;17.05;;;4.90;99.70;;;;;;5044098;28;20039;-74
2022/03/25 01:00:00;;;;;;;35.03;18.55;;;4.80;99.90;;;;;;5044291;28;20040;-75
2022/03/25 01:02:26;;;;;;;35.85;18.10;;;4.80;99.90;;;;;;5043357;28;20405;-73
2022/03/25 01:04:51;;;;;;;37.30;18.63;;;4.70;99.90;;;;;;5045106;28;20463;-74
2022/03/25 01:07:17;;;;;;;30.83;19.13;;;4.70;99.90;;;;;;5043612;28;20022;-74
2022/03/25 01:09:43;;;;;;;36.42;18.70;;;4.80;99.90;;;;;;5044831;28;20037;-73
2022/03/25 01:12:10;;;;;;;32.55;19.02;;;4.80;99.90;;;;;;5043575;28;20029;-73
2022/03/25 01:14:36;;;;;;;33.13;18.38;;;4.70;99.90;;;;;;5042999;28;20181;-75
2022/03/25 01:17:02;;;;;;;33.88;18.30;;;4.70;99.90;;;;;;5047107;28;20428;-75
2022/03/25 01:19:28;;;;;;;34.92;19.35;;;4.70;99.90;;;;;;5043647;28;20040;-76
2022/03/25 01:21:55;;;;;;;31.77;18.58;;;4.60;99.90;;;;;;5048807;28;20025;-75
2022/03/25 01:24:21;;;;;;;30.00;17.48;;;4.50;99.90;;;;;;5042305;28;20037;-75
2022/03/25 01:26:47;;;;;;;31.13;17.92;;;4.50;99.90;;;;;;5052191;28;20104;-75
2022/03/25 01:29:13;;;;;;;32.72;18.45;;;4.40;99.90;;;;;;5052579;28;20116;-71
2022/03/25 01:31:39;;;;;;;37.83;18.75;;;4.40;99.90;;;;;;5049542;28;20224;-75
2022/03/25 01:34:05;;;;;;;35.83;19.25;;;4.40;99.90;;;;;;5034980;28;20029;-75
2022/03/25 01:36:31;;;;;;;33.00;18.42;;;4.40;99.90;;;;;;5033857;28;20035;-75
2022/03/25 01:38:58;;;;;;;35.13;18.45;;;4.50;99.90;;;;;;5035073;28;20033;-75
2022/03/25 01:41:24;;;;;;;36.58;20.10;;;4.50;99.90;;;;;;5033983;28;20078;-73
2022/03/25 01:43:59;;;;;;;35.05;18.65;;;4.50;99.90;;;;;;5037032;28;20029;-74
2022/03/25 01:46:26;;;;;;;34.15;17.42;;;4.40;99.90;;;;;;5053594;28;20060;-74
2022/03/25 01:48:53;;;;;;;33.47;18.10;;;4.40;99.90;;;;;;5054183;28;20513;-74
2022/03/25 01:51:23;;;;;;;30.60;18.17;;;4.40;99.90;;;;;;5053018;28;20523;-73
2022/03/25 01:53:49;;;;;;;32.85;18.17;;;4.30;99.90;;;;;;5053051;28;20037;-74
2022/03/25 01:56:22;;;;;;;36.88;18.58;;;4.30;99.90;;;;;;5033919;28;20112;-71
2022/03/25 01:58:48;;;;;;;32.03;17.88;;;4.20;99.90;;;;;;5038567;28;20026;-74
2022/03/25 02:01:14;;;;;;;32.28;18.67;;;4.20;99.90;;;;;;5033782;28;20120;-71
2022/03/25 02:03:40;;;;;;;34.97;18.90;;;4.20;99.90;;;;;;5053872;28;20112;-74
2022/03/25 02:06:06;;;;;;;35.75;19.00;;;4.10;99.90;;;;;;5053571;28;20028;-73
2022/03/25 02:08:32;;;;;;;35.92;19.75;;;4.10;99.90;;;;;;5049178;28;20030;-73
2022/03/25 02:10:59;;;;;;;33.17;18.90;;;4.00;99.90;;;;;;5032828;28;20032;-73
2022/03/25 02:13:25;;;;;;;33.08;18.33;;;4.10;99.90;;;;;;5033937;28;20037;-72
2022/03/25 02:15:51;;;;;;;29.77;17.52;;;4.00;99.90;;;;;;5033868;28;20060;-73
2022/03/25 02:18:18;;;;;;;35.03;20.02;;;4.00;99.90;;;;;;5034056;28;20033;-73
2022/03/25 02:20:46;;;;;;;35.28;19.50;;;3.90;99.90;;;;;;5053960;28;20037;-75
2022/03/25 02:23:12;;;;;;;35.28;18.45;;;3.90;99.90;;;;;;5053751;28;20474;-74
2022/03/25 02:25:38;;;;;;;32.22;17.85;;;3.90;99.90;;;;;;5048715;28;20120;-74
2022/03/25 02:28:04;;;;;;;37.60;19.38;;;3.90;99.90;;;;;;5033986;28;20049;-73
2022/03/25 02:30:31;;;;;;;33.85;19.85;;;3.90;99.90;;;;;;5033246;28;20440;-74
2022/03/25 02:33:01;;;;;;;37.63;20.05;;;3.90;99.90;;;;;;5044057;28;20429;-74
2022/03/25 02:35:45;;;;;;;34.13;17.40;;;3.80;99.90;;;;;;5053146;28;20467;-74
2022/03/25 02:38:14;;;;;;;35.40;18.73;;;3.80;99.90;;;;;;5049637;28;20061;-74
2022/03/25 02:40:40;;;;;;;35.30;18.38;;;3.70;99.90;;;;;;5044661;28;20036;-74
2022/03/25 02:43:06;;;;;;;32.58;18.30;;;3.70;99.90;;;;;;5041267;28;20467;-75
2022/03/25 02:45:32;;;;;;;38.00;20.75;;;3.60;99.90;;;;;;5048788;28;20083;-75
2022/03/25 02:48:00;;;;;;;36.90;19.48;;;3.60;99.90;;;;;;5052994;28;20410;-74
2022/03/25 02:50:26;;;;;;;39.40;20.17;;;3.60;99.90;;;;;;5052704;28;20056;-75
2022/03/25 02:52:54;;;;;;;34.28;18.88;;;3.70;99.90;;;;;;5043125;28;20029;-74
2022/03/25 02:55:19;;;;;;;32.47;18.85;;;3.70;99.90;;;;;;5032545;28;20112;-73
2022/03/25 02:57:45;;;;;;;33.92;18.60;;;3.70;99.90;;;;;;5032076;28;20124;-73
2022/03/25 03:00:11;;;;;;;35.70;19.30;;;3.60;99.90;;;;;;5052351;28;20033;-74
2022/03/25 03:02:38;;;;;;;33.65;19.30;;;3.60;99.90;;;;;;5051269;28;20025;-74
2022/03/25 03:05:07;;;;;;;30.58;17.73;;;3.60;99.90;;;;;;5053135;28;20100;-74
2022/03/25 03:07:35;;;;;;;33.42;17.90;;;3.50;99.90;;;;;;5047127;28;20072;-74
2022/03/25 03:10:02;;;;;;;36.05;18.50;;;3.40;99.90;;;;;;5051864;28;20370;-74
2022/03/25 03:12:28;;;;;;;34.83;18.52;;;3.40;99.90;;;;;;5031946;28;20060;-74
2022/03/25 03:14:55;;;;;;;39.10;20.98;;;3.30;99.90;;;;;;5033053;28;20396;-74
2022/03/25 03:17:21;;;;;;;35.78;20.08;;;3.30;99.90;;;;;;5031754;28;20029;-73
2022/03/25 03:19:47;;;;;;;41.97;21.13;;;3.20;99.90;;;;;;5052125;28;20161;-74
2022/03/25 03:22:13;;;;;;;38.00;20.25;;;3.30;99.90;;;;;;5052747;28;20028;-74
2022/03/25 03:24:38;;;;;;;37.40;20.48;;;3.40;99.90;;;;;;5051785;28;20037;-74
2022/03/25 03:27:04;;;;;;;35.00;18.95;;;3.40;99.90;;;;;;5052420;28;20032;-75
2022/03/25 03:29:29;;;;;;;39.47;20.98;;;3.40;99.90;;;;;;5037115;28;20037;-76
2022/03/25 03:31:55;;;;;;;38.35;19.30;;;3.40;99.90;;;;;;5036072;28;20079;-74
2022/03/25 03:34:21;;;;;;;31.55;17.17;;;3.40;99.90;;;;;;5056794;28;20036;-74
2022/03/25 03:36:47;;;;;;;32.28;18.58;;;3.30;99.90;;;;;;5056233;28;20061;-74
2022/03/25 03:39:13;;;;;;;33.03;18.40;;;3.20;99.90;;;;;;5036346;28;20033;-74
2022/03/25 03:41:38;;;;;;;36.88;19.20;;;3.20;99.90;;;;;;5031587;28;20033;-75
2022/03/25 03:44:05;;;;;;;34.70;20.58;;;3.20;99.90;;;;;;5036770;28;20017;-74
2022/03/25 03:46:32;;;;;;;40.20;20.35;;;3.10;99.90;;;;;;5051531;28;20093;-75
2022/03/25 03:48:57;;;;;;;33.53;19.10;;;3.00;99.90;;;;;;5040467;28;20053;-76
2022/03/25 03:51:23;;;;;;;32.42;18.77;;;3.00;99.90;;;;;;5031397;28;20039;-74
2022/03/25 03:53:48;;;;;;;35.10;18.88;;;3.00;99.90;;;;;;5032384;28;20022;-73
2022/03/25 03:56:14;;;;;;;34.88;18.90;;;2.90;99.90;;;;;;5032262;28;20163;-75
2022/03/25 03:58:40;;;;;;;39.78;20.10;;;2.90;99.90;;;;;;5041868;28;20029;-75
2022/03/25 04:01:05;;;;;;;38.15;20.92;;;2.90;99.90;;;;;;5051865;28;20023;-75
2022/03/25 04:03:31;;;;;;;40.20;20.90;;;2.90;99.90;;;;;;5050800;28;20029;-75
2022/03/25 04:05:57;;;;;;;44.88;21.02;;;2.90;99.90;;;;;;5051974;28;20057;-75
2022/03/25 04:08:23;;;;;;;38.22;19.70;;;2.90;99.90;;;;;;5041966;28;20037;-73
2022/03/25 04:10:49;;;;;;;38.33;20.30;;;3.00;99.90;;;;;;5032380;28;20072;-74
2022/03/25 04:13:14;;;;;;;36.88;19.38;;;2.90;99.90;;;;;;5031913;28;20034;-73
2022/03/25 04:15:40;;;;;;;34.10;18.60;;;2.90;99.90;;;;;;5031415;28;20056;-73
2022/03/25 04:18:06;;;;;;;34.78;19.40;;;2.90;99.90;;;;;;5037328;28;20036;-73
2022/03/25 04:20:32;;;;;;;36.35;19.85;;;2.80;99.90;;;;;;5050946;28;20079;-73
2022/03/25 04:22:58;;;;;;;37.85;19.75;;;2.70;99.90;;;;;;5044837;28;20037;-73
2022/03/25 04:25:24;;;;;;;37.30;20.58;;;2.70;99.90;;;;;;5031245;28;20090;-73
2022/03/25 04:27:50;;;;;;;36.50;19.88;;;2.60;99.90;;;;;;5037553;28;20029;-74
2022/03/25 04:30:27;;;;;;;36.58;19.60;;;2.50;99.90;;;;;;5051404;28;20463;-71
2022/03/25 04:32:54;;;;;;;42.13;21.52;;;2.50;99.90;;;;;;5050960;28;20037;-73
2022/03/25 04:35:21;;;;;;;44.63;23.38;;;2.50;99.90;;;;;;5049947;28;20382;-70
2022/03/25 04:37:46;;;;;;;40.95;20.75;;;2.50;99.90;;;;;;5050704;28;20385;-73
2022/03/25 04:40:17;;;;;;;41.55;21.05;;;2.50;99.90;;;;;;5051243;28;20033;-73
2022/03/25 04:42:44;;;;;;;36.33;20.23;;;2.60;99.90;;;;;;5051166;28;20529;-73
2022/03/25 04:45:10;;;;;;;38.50;20.67;;;2.50;99.90;;;;;;5037561;28;20456;-73
2022/03/25 04:47:35;;;;;;;35.33;19.92;;;2.50;99.90;;;;;;5037376;28;20095;-73
2022/03/25 04:50:02;;;;;;;42.08;21.88;;;2.50;99.90;;;;;;5051054;28;20055;-73
2022/03/25 04:52:27;;;;;;;47.08;21.88;;;2.40;99.90;;;;;;5050163;28;20032;-72
2022/03/25 04:54:53;;;;;;;41.42;21.70;;;2.50;99.90;;;;;;5051398;28;20021;-73
2022/03/25 04:57:19;;;;;;;42.00;22.13;;;2.40;99.90;;;;;;5047080;28;20061;-70
2022/03/25 04:59:44;;;;;;;37.92;20.92;;;2.50;99.90;;;;;;5031234;28;20530;-74
2022/03/25 05:02:12;;;;;;;37.65;20.58;;;2.50;99.90;;;;;;5036766;28;20033;-73
2022/03/25 05:04:38;;;;;;;36.83;21.38;;;2.50;99.90;;;;;;5051418;28;20103;-73
2022/03/25 05:07:04;;;;;;;43.65;20.25;;;2.50;99.90;;;;;;5051138;28;20409;-73
2022/03/25 05:09:29;;;;;;;39.95;19.92;;;2.50;99.90;;;;;;5030947;28;20073;-74
2022/03/25 05:11:55;;;;;;;38.28;19.63;;;2.40;99.90;;;;;;5039251;28;20480;-73
2022/03/25 05:14:20;;;;;;;40.15;20.83;;;2.40;99.90;;;;;;5049665;28;20025;-69
2022/03/25 05:16:52;;;;;;;38.30;20.48;;;2.40;99.90;;;;;;5049287;28;20463;-74
2022/03/25 05:19:19;;;;;;;38.65;21.10;;;2.30;99.90;;;;;;5031255;28;20081;-74
2022/03/25 05:21:45;;;;;;;44.65;22.02;;;2.30;99.90;;;;;;5030770;28;20049;-74
2022/03/25 05:24:10;;;;;;;35.63;19.95;;;2.30;99.90;;;;;;5031907;28;20451;-74
2022/03/25 05:26:36;;;;;;;39.40;21.02;;;2.20;99.90;;;;;;5052717;28;20397;-73
2022/03/25 05:29:03;;;;;;;38.17;21.00;;;2.20;99.90;;;;;;5046233;28;20042;-73
2022/03/25 05:31:29;;;;;;;35.42;21.20;;;2.20;99.90;;;;;;5044604;28;20084;-74
2022/03/25 05:33:54;;;;;;;42.38;22.35;;;2.20;99.90;;;;;;5055329;28;20021;-74
2022/03/25 05:36:20;;;;;;;47.00;22.77;;;2.20;99.90;;;;;;5054816;28;20021;-71
2022/03/25 05:38:45;;;;;;;43.58;21.55;;;2.20;99.90;;;;;;5054590;28;20068;-73
2022/03/25 05:41:11;;;;;;;41.17;21.55;;;2.30;99.90;;;;;;5052133;28;20026;-74
2022/03/25 05:43:37;;;;;;;44.17;22.40;;;2.40;99.90;;;;;;5036179;28;20029;-75
2022/03/25 05:46:03;;;;;;;36.13;20.73;;;2.40;99.90;;;;;;5055285;28;20032;-74
2022/03/25 05:48:29;;;;;;;40.20;21.17;;;2.50;99.90;;;;;;5056962;28;20057;-75
2022/03/25 05:50:55;;;;;;;38.20;20.50;;;2.50;99.90;;;;;;5052350;28;20438;-74
2022/03/25 05:53:21;;;;;;;43.42;21.10;;;2.60;99.90;;;;;;5034453;28;20025;-70
2022/03/25 05:55:46;;;;;;;38.92;20.55;;;2.60;99.90;;;;;;5034979;28;20470;-74
2022/03/25 05:58:12;;;;;;;41.78;20.48;;;2.60;99.90;;;;;;5034602;28;20029;-74
2022/03/25 06:00:38;;;;;;;35.80;20.25;;;2.60;99.90;;;;;;5035037;28;20072;-74
2022/03/25 06:03:05;;;;;;;39.53;21.45;;;2.60;99.90;;;;;;5054460;28;20033;-74
2022/03/25 06:05:31;;;;;;;42.75;22.85;;;2.70;99.90;;;;;;5052278;28;20048;-75
2022/03/25 06:07:57;;;;;;;40.67;21.88;;;2.70;99.90;;;;;;5054094;28;20470;-74
2022/03/25 06:10:23;;;;;;;43.63;21.52;;;2.80;99.90;;;;;;5053432;28;20039;-71
2022/03/25 06:12:49;;;;;;;41.83;22.20;;;2.90;99.90;;;;;;5037038;28;20036;-74
2022/03/25 06:15:14;;;;;;;40.80;22.45;;;2.90;99.90;;;;;;5035090;28;20025;-75
2022/03/25 06:17:54;;;;;;;40.45;22.13;;;3.00;99.90;;;;;;5033243;28;20097;-74
2022/03/25 06:20:24;;;;;;;41.83;21.48;;;3.10;99.90;;;;;;5034764;28;20041;-75
2022/03/25 06:22:51;;;;;;;38.60;21.45;;;3.30;99.90;;;;;;5054109;28;20040;-77
2022/03/25 06:25:17;;;;;;;46.08;20.85;;;3.40;99.90;;;;;;5036969;28;20156;-80
2022/03/25 06:27:51;;;;;;;48.58;22.08;;;3.50;99.90;;;;;;5033391;28;20115;-77
2022/03/25 06:30:18;;;;;;;43.83;22.52;;;3.60;99.90;;;;;;5034565;28;20053;-74
2022/03/25 06:32:44;;;;;;;38.83;21.92;;;3.70;99.90;;;;;;5052866;28;20025;-74
2022/03/25 06:35:10;;;;;;;39.88;21.75;;;3.80;99.90;;;;;;5037954;28;20025;-73
2022/03/25 06:37:36;;;;;;;36.80;21.25;;;3.90;99.90;;;;;;5046966;28;20094;-73
2022/03/25 06:40:05;;;;;;;35.05;20.10;;;4.00;99.90;;;;;;5052515;28;20170;-75
2022/03/25 06:42:31;;;;;;;35.07;19.87;;;4.00;99.90;;;;;;5033381;28;20037;-76
2022/03/25 06:44:57;;;;;;;34.85;20.58;;;4.10;99.90;;;;;;5036125;28;20633;-78
2022/03/25 06:47:23;;;;;;;41.45;20.55;;;4.20;99.90;;;;;;5035869;28;20482;-71
2022/03/25 06:49:48;;;;;;;38.72;21.63;;;4.30;99.90;;;;;;5032188;28;20057;-78
2022/03/25 06:52:14;;;;;;;34.65;20.30;;;4.30;99.90;;;;;;5056270;28;20029;-75
2022/03/25 06:54:40;;;;;;;41.28;22.25;;;4.40;99.90;;;;;;5043627;28;20026;-76
2022/03/25 06:57:06;;;;;;;34.13;21.30;;;4.50;99.90;;;;;;5033289;28;20036;-75
2022/03/25 06:59:33;;;;;;;39.50;21.25;;;4.60;99.90;;;;;;5033376;28;20088;-79
2022/03/25 07:01:58;;;;;;;49.50;23.58;;;4.80;99.90;;;;;;5034988;28;20431;-76
2022/03/25 07:04:25;;;;;;;47.53;24.75;;;4.90;99.90;;;;;;5038900;28;20041;-71
2022/03/25 07:06:55;;;;;;;45.33;22.88;;;5.20;99.90;;;;;;5052117;28;20094;-75
2022/03/25 07:09:21;;;;;;;38.17;21.25;;;5.40;99.90;;;;;;5045915;28;20626;-71
2022/03/25 07:11:47;;;;;;;43.78;21.27;;;5.40;99.90;;;;;;5026031;28;20037;-76
2022/03/25 07:14:12;;;;;;;38.53;22.17;;;5.50;99.90;;;;;;5038417;28;20025;-80
2022/03/25 07:16:42;;;;;;;37.42;20.48;;;5.70;99.90;;;;;;5053471;28;20028;-80
2022/03/25 07:19:09;;;;;;;38.65;21.70;;;5.80;99.90;;;;;;5053210;28;20103;-80
2022/03/25 07:21:35;;;;;;;40.13;23.00;;;5.90;99.90;;;;;;5050821;28;20040;-79
2022/03/25 07:24:01;;;;;;;44.08;22.42;;;6.10;99.90;;;;;;5050031;28;20025;-81
2022/03/25 07:26:26;;;;;;;39.25;21.38;;;6.20;99.90;;;;;;5057810;28;20108;-71
2022/03/25 07:28:52;;;;;;;39.60;21.83;;;6.30;99.90;;;;;;5047068;28;20057;-79
2022/03/25 07:31:18;;;;;;;37.47;22.65;;;6.40;99.50;;;;;;5046863;28;20025;-80
2022/03/25 07:33:44;;;;;;;37.42;22.45;;;6.50;99.30;;;;;;5031934;28;20375;-80
2022/03/25 07:36:10;;;;;;;37.95;22.80;;;6.70;98.30;;;;;;5033182;28;20499;-80
2022/03/25 07:38:36;;;;;;;38.00;22.02;;;6.80;98.00;;;;;;5037354;28;20037;-81
2022/03/25 07:41:03;;;;;;;38.47;21.60;;;6.90;97.40;;;;;;5035943;28;20037;-81
2022/03/25 07:43:32;;;;;;;35.83;21.00;;;7.00;97.10;;;;;;5032310;28;20044;-78
2022/03/25 07:45:58;;;;;;;45.83;22.38;;;7.10;96.70;;;;;;5042405;28;20451;-81
2022/03/25 07:48:24;;;;;;;36.97;22.92;;;7.20;95.70;;;;;;5031872;28;20033;-80
2022/03/25 07:50:49;;;;;;;40.80;22.08;;;7.40;94.90;;;;;;5031662;28;20033;-79
2022/03/25 07:53:15;;;;;;;41.42;22.25;;;7.50;94.40;;;;;;5032304;28;20459;-78
2022/03/25 07:55:44;;;;;;;42.78;24.05;;;7.60;94.30;;;;;;5053683;28;20029;-81
2022/03/25 07:58:10;;;;;;;40.17;21.88;;;7.70;93.10;;;;;;5053518;28;20033;-79
2022/03/25 08:00:35;;;;;;;39.75;22.38;;;7.80;92.70;;;;;;5046342;28;20036;-78
2022/03/25 08:03:01;;;;;;;37.30;22.42;;;7.90;92.80;;;;;;5038226;28;20382;-81
2022/03/25 08:05:27;;;;;;;42.72;22.67;;;8.00;92.20;;;;;;5045096;28;20036;-72
2022/03/25 08:07:54;;;;;;;36.72;22.33;;;8.20;91.10;;;;;;5051762;28;20037;-80
2022/03/25 08:10:25;;;;;;;40.53;22.30;;;8.20;90.90;;;;;;5043702;28;20032;-80
2022/03/25 08:12:53;;;;;;;45.03;23.33;;;8.40;90.40;;;;;;5047909;28;20029;-80
2022/03/25 08:15:20;;;;;;;38.78;21.83;;;8.50;88.10;;;;;;5032853;28;20128;-79
2022/03/25 08:17:55;;;;;;;39.05;21.77;;;8.60;87.50;;;;;;5031791;28;20029;-80
2022/03/25 08:20:29;;;;;;;40.03;23.73;;;8.70;87.60;;;;;;5045215;28;20033;-79
2022/03/25 08:22:56;;;;;;;38.78;21.98;;;8.80;86.30;;;;;;5052349;28;20085;-80
2022/03/25 08:28:07;;;;;;;37.42;22.20;;;9.00;85.50;;;;;;5032329;28;20048;-78
2022/03/25 08:30:33;;;;;;;41.17;22.80;;;9.10;84.50;;;;;;5032331;28;20474;-80
2022/03/25 08:33:01;;;;;;;43.83;23.33;;;9.20;83.60;;;;;;5032083;28;20033;-78
2022/03/25 08:35:27;;;;;;;45.33;23.83;;;9.40;82.10;;;;;;5015046;28;20386;-71
2022/03/25 08:37:53;;;;;;;40.30;22.52;;;9.50;82.00;;;;;;5042317;28;20442;-80
2022/03/25 08:40:23;;;;;;;39.45;24.30;;;9.60;79.60;;;;;;5054415;28;20040;-78
2022/03/25 08:42:49;;;;;;;36.28;20.92;;;9.70;79.80;;;;;;5051657;28;20025;-79
2022/03/25 08:45:16;;;;;;;43.60;24.15;;;9.90;79.50;;;;;;5037975;28;20026;-81
2022/03/25 08:47:43;;;;;;;43.55;24.52;;;10.00;79.00;;;;;;5031009;28;20109;-80
2022/03/25 08:50:12;;;;;;;41.25;25.45;;;10.10;77.30;;;;;;5043055;28;20054;-79
2022/03/25 08:52:39;;;;;;;51.38;24.70;;;10.40;76.30;;;;;;5030491;28;20033;-81
2022/03/25 08:55:06;;;;;;;46.72;25.90;;;10.50;75.40;;;;;;5031511;28;20356;-81
2022/03/25 08:57:32;;;;;;;38.95;23.75;;;10.60;73.70;;;;;;5030807;28;20040;-79
2022/03/25 08:59:58;;;;;;;45.50;25.55;;;10.70;72.70;;;;;;5032745;28;20360;-80
2022/03/25 09:02:23;;;;;;;43.28;25.15;;;10.80;71.60;;;;;;5042160;28;20029;-79
2022/03/25 09:04:49;;;;;;;53.03;25.55;;;11.00;70.60;;;;;;5054915;28;20422;-80
2022/03/25 09:07:15;;;;;;;40.80;24.80;;;11.20;70.00;;;;;;5050437;28;20500;-79
2022/03/25 09:09:40;;;;;;;47.22;24.63;;;11.30;67.70;;;;;;5053940;28;20478;-80
2022/03/25 09:12:08;;;;;;;40.38;24.52;;;11.40;66.90;;;;;;5039354;28;20025;-80
2022/03/25 09:14:34;;;;;;;48.63;25.63;;;11.50;67.60;;;;;;5035272;28;20040;-79
2022/03/25 09:17:00;;;;;;;44.70;26.73;;;11.70;67.20;;;;;;5034315;28;20029;-81
2022/03/25 09:19:26;;;;;;;46.53;25.20;;;12.00;64.10;;;;;;5036975;28;20508;-80
2022/03/25 09:21:52;;;;;;;50.75;28.05;;;12.00;63.80;;;;;;5055147;28;20033;-80
2022/03/25 09:24:17;;;;;;;47.33;26.40;;;12.20;64.50;;;;;;5053774;28;20067;-79
2022/03/25 09:26:43;;;;;;;45.00;26.23;;;12.30;63.00;;;;;;5037061;28;20045;-81
2022/03/25 09:29:09;;;;;;;47.10;26.67;;;12.40;62.30;;;;;;5053220;28;20025;-78
2022/03/25 09:31:35;;;;;;;49.25;27.05;;;12.50;62.30;;;;;;5053108;28;20528;-77
2022/03/25 09:36:45;;;;;;;48.63;29.05;;;12.70;61.70;;;;;;5054612;28;20043;-77
2022/03/25 09:39:10;;;;;;;47.13;27.08;;;13.00;61.00;;;;;;5053859;28;20033;-75
2022/03/25 09:41:36;;;;;;;45.40;27.60;;;13.10;60.00;;;;;;5052272;28;20120;-77
2022/03/25 09:44:07;;;;;;;50.47;27.80;;;13.10;60.40;;;;;;5054293;28;20411;-77
2022/03/25 09:46:32;;;;;;;;;;;13.20;58.90;;;;;;5055723;28;20033;-76
2022/03/25 09:48:58;;;;;;;46.30;28.52;;;13.30;57.80;;;;;;5060177;28;19924;-79
2022/03/25 09:51:23;;;;;;;49.53;28.98;;;13.40;57.40;;;;;;5052257;28;20049;-79
2022/03/25 09:53:50;;;;;;;54.15;28.30;;;13.40;57.60;;;;;;5054362;28;20094;-79
2022/03/25 09:56:16;;;;;;;52.78;28.42;;;13.50;58.00;;;;;;5054100;28;20029;-79
2022/03/25 09:58:42;;;;;;;48.83;28.10;;;13.70;57.60;;;;;;5037103;28;20040;-78
2022/03/25 10:01:07;;;;;;;51.83;30.20;;;13.80;57.10;;;;;;5046380;28;20138;-79
2022/03/25 10:03:36;;;;;;;45.67;28.15;;;14.00;71.30;;;;;;5053556;28;20036;-79
2022/03/25 10:06:04;;;;;;;51.85;27.98;;;14.00;55.20;;;;;;5053201;28;20537;-78
2022/03/25 10:08:31;;;;;;;58.25;30.00;;;14.10;55.00;;;;;;5041047;28;20119;-74
2022/03/25 10:11:27;;;;;;;47.33;28.52;;;14.30;54.40;;;;;;5052071;28;20052;-79
2022/03/25 10:14:23;;;;;;;56.72;29.42;;;14.40;54.00;;;;;;5036042;28;20112;-78
2022/03/25 10:16:53;;;;;;;54.70;29.08;;;14.50;69.30;;;;;;5033567;28;20215;-77
2022/03/25 10:19:20;;;;;;;53.13;29.50;;;;;;;;;;5043276;28;20055;-76
2022/03/25 10:22:06;;;;;;;46.67;28.02;;;;;;;;;;5044907;28;20091;-79
2022/03/25 10:24:52;;;;;;;46.70;28.20;;;14.90;49.70;;;;;;5041443;28;20038;-70
2022/03/25 10:27:22;;;;;;;47.58;29.45;;;14.90;51.20;;;;;;5034106;28;20033;-79
2022/03/25 10:29:50;;;;;;;46.78;29.25;;;15.10;49.60;;;;;;5033153;28;20544;-78
2022/03/25 10:32:24;;;;;;;63.35;28.63;;;15.20;49.00;;;;;;5045623;28;20041;-79
2022/03/25 10:35:10;;;;;;;42.92;28.75;;;15.30;49.50;;;;;;5053231;28;20044;-79
2022/03/25 10:37:57;;;;;;;54.15;28.77;;;15.50;48.80;;;;;;5039449;28;20030;-76
2022/03/25 10:40:23;;;;;;;55.10;28.80;;;15.50;48.50;;;;;;5033681;28;20029;-78
2022/03/25 10:43:09;;;;;;;42.55;28.33;;;15.70;49.00;;;;;;5040657;28;20797;-77
2022/03/25 10:45:41;;;;;;;44.80;28.30;;;15.70;48.20;;;;;;5044437;28;20116;-78
2022/03/25 10:48:19;;;;;;;47.22;30.85;;;15.80;49.10;;;;;;5051815;28;20028;-79
2022/03/25 10:51:01;;;;;;;52.13;28.30;;;15.90;48.40;;;;;;5050042;28;20124;-78
2022/03/25 10:53:29;;;;;;;43.65;27.40;;;15.90;48.90;;;;;;5038140;28;20033;-78
2022/03/25 10:56:00;;;;;;;51.42;31.27;;;16.10;48.60;;;;;;5032939;28;20025;-79
2022/03/25 10:58:26;;;;;;;44.65;29.05;;;16.20;49.00;;;;;;5032990;28;20032;-78
2022/03/25 11:00:52;;;;;;;46.55;30.98;;;16.30;49.00;;;;;;5040005;28;20529;-78
2022/03/25 11:03:18;;;;;;;43.10;27.70;;;16.40;48.10;;;;;;5051331;28;20191;-79
2022/03/25 11:05:44;;;;;;;47.45;27.90;;;16.50;47.40;;;;;;5052312;28;20032;-79
2022/03/25 11:08:11;;;;;;;47.53;28.63;;;16.60;47.10;;;;;;5052530;28;20120;-79
2022/03/25 11:10:38;;;;;;;51.17;28.25;;;16.80;46.90;;;;;;5049234;28;20037;-79
2022/03/25 11:13:04;;;;;;;47.25;30.23;;;17.00;46.50;;;;;;5053234;28;20025;-79
2022/03/25 11:15:32;;;;;;;49.92;27.77;;;17.20;45.90;;;;;;5052605;28;20037;-71
2022/03/25 11:17:58;;;;;;;47.15;30.02;;;17.50;45.70;;;;;;5045544;28;20419;-78
2022/03/25 11:20:26;;;;;;;44.53;28.85;;;17.50;45.30;;;;;;5044842;28;20033;-76
2022/03/25 11:23:10;;;;;;;43.60;30.55;;;17.70;45.20;;;;;;5032360;28;20632;-78
2022/03/25 11:25:46;;;;;;;46.38;29.00;;;17.80;44.70;;;;;;5035032;28;20022;-77
2022/03/25 11:28:17;;;;;;;45.05;30.70;;;18.00;44.50;;;;;;5042550;28;20033;-76
2022/03/25 11:30:42;;;;;;;;;;;18.20;43.60;;;;;;5052364;28;20028;-78
2022/03/25 11:33:10;;;;;;;46.55;29.08;;;18.60;41.90;;;;;;5041667;28;20270;-78
2022/03/25 11:35:41;;;;;;;44.45;28.15;;;18.60;43.20;;;;;;5032612;28;20034;-76
2022/03/25 11:38:12;;;;;;;44.50;29.55;;;18.90;41.50;;;;;;5033267;28;20481;-77
2022/03/25 11:40:44;;;;;;;38.47;28.10;;;19.30;41.30;;;;;;5044653;28;20029;-78
2022/03/25 11:43:25;;;;;;;42.13;27.33;;;19.20;39.80;;;;;;5050916;28;20075;-78
2022/03/25 11:45:59;;;;;;;39.60;26.92;;;19.50;39.70;;;;;;5036741;28;20779;-79
2022/03/25 11:48:25;;;;;;;37.17;26.25;;;19.50;40.80;;;;;;5031981;28;20057;-79
2022/03/25 11:50:52;;;;;;;43.88;28.13;;;19.70;40.00;;;;;;5031639;28;20065;-78
2022/03/25 11:53:22;;;;;;;39.13;27.20;;;20.20;39.50;;;;;;5032515;28;20033;-79
2022/03/25 11:56:04;;;;;;;36.17;26.38;;;20.50;39.10;;;;;;5031886;28;20037;-79
2022/03/25 11:58:56;;;;;;;37.42;26.48;;;20.70;38.40;;;;;;5032520;28;20040;-80
2022/03/25 12:01:23;;;;;;;34.53;25.58;;;;;;;;;;5035738;28;20489;-80
2022/03/25 12:03:50;;;;;;;40.90;28.63;;;;;;;;;;5050391;28;20044;-78
2022/03/25 12:06:17;;;;;;;39.05;29.73;;;21.70;37.10;;;;;;5031003;28;20462;-80
2022/03/25 12:09:15;;;;;;;40.15;28.95;;;21.70;36.70;;;;;;5042221;28;20125;-80
2022/03/25 12:11:55;;;;;;;39.70;27.08;;;21.50;37.10;;;;;;5047257;28;20115;-80
2022/03/25 12:14:31;;;;;;;37.97;27.27;;;21.70;37.20;;;;;;5050625;28;20036;-80
2022/03/25 12:17:11;;;;;;;39.25;26.17;;;21.70;35.50;;;;;;5035819;28;20812;-80
2022/03/25 12:19:50;;;;;;;35.30;26.95;;;21.70;36.30;;;;;;5031009;28;20044;-73
2022/03/25 12:22:18;;;;;;;34.92;24.42;;;21.80;35.30;;;;;;5043098;28;20029;-79
2022/03/25 12:24:54;;;;;;;30.20;22.60;;;21.70;36.90;;;;;;5031206;28;20025;-79
2022/03/25 12:27:21;;;;;;;28.75;21.15;;;21.80;34.50;;;;;;5034539;28;20112;-79
2022/03/25 12:29:50;;;;;;;37.85;25.08;;;21.80;35.00;;;;;;5051105;28;20029;-79
2022/03/25 12:32:17;;;;;;;32.28;23.92;;;21.90;34.80;;;;;;5048304;28;20044;-80
2022/03/25 12:34:58;;;;;;;48.45;24.55;;;;;;;;;;5039002;28;20470;-79
2022/03/25 12:37:39;;;;;;;34.50;23.73;;;22.10;35.10;;;;;;5050958;28;20021;-79
2022/03/25 12:40:19;;;;;;;33.05;24.23;;;;;;;;;;5051305;28;20040;-80
2022/03/25 12:42:45;;;;;;;;;;;;;;;;;;5046323;28;20036;-79
2022/03/25 12:45:11;;;;;;;35.83;25.85;;;23.20;35.40;;;;;;5044525;28;19905;-77
2022/03/25 12:47:42;;;;;;;33.10;25.25;;;23.20;35.80;;;;;;5050693;28;20425;-71